Duty — WDD5291 — position and weather

sailwx.info

Track history (hours):
 
Tides and Currents Weather Stations Pressure Air Temp Water Temp Dewpoint Dewpoint Depression Visibility Wind Speed Wind Dir Waves Ship Positions

Duty

Owner: Express Marine Inc., Camden, NJ. More information available from US FCC via Universal Licensing System and Coast Guard Vessel Documentation Center.

Last reported at 2017-Oct-15 09:24 UTC. Time now 2017-Oct-19 23:40 UTC.
Position N 31°52' W 080°44'.

Length 33 m; draft 5.5 m.

Type: Tug. MMSI: 367082000.

Date/timePositionNaut miles runAvg speedWind from/ knotsBaromVisibWave heightAir tempDewpointWater temp
2017-Oct-15 09:24N 31°52' W 080°44'3 7.1
2017-Oct-15 08:57N 31°55' W 080°43'3 7.0
2017-Oct-15 08:28N 31°58' W 080°40'4 7.3
2017-Oct-15 07:59N 32°01' W 080°37'3 7.4
2017-Oct-15 07:30N 32°03' W 080°34'  
2017-Oct-11 00:01N 34°39' W 076°16'134 6.5
2017-Oct-10 03:11N 36°52' W 075°55'2 8.7
2017-Oct-10 02:58N 36°54' W 075°56'5 8.7
2017-Oct-10 02:24N 36°57' W 076°01'16 0.5
2017-Oct-08 13:54N 36°57' W 076°22'0 0.0
2017-Oct-08 13:27N 36°57' W 076°22'123 5.4
2017-Oct-07 14:37N 38°39' W 074°55'2 8.5
2017-Oct-07 14:25N 38°40' W 074°54'3 8.6
2017-Oct-07 14:00N 38°44' W 074°53'4 8.4
2017-Oct-07 13:30N 38°48' W 074°51'4 8.4
2017-Oct-07 13:00N 38°52' W 074°49'5 8.7
2017-Oct-07 12:25N 38°56' W 074°45'4 8.9
2017-Oct-07 12:00N 38°59' W 074°42'4 8.8
2017-Oct-07 11:30N 39°02' W 074°39'4 8.8
2017-Oct-07 11:00N 39°06' W 074°36'4 8.9
2017-Oct-07 10:30N 39°09' W 074°32'4 8.9
2017-Oct-07 10:00N 39°13' W 074°29'5 8.8
2017-Oct-07 09:30N 39°16' W 074°25'4 8.7
2017-Oct-07 09:00N 39°20' W 074°21'4 8.7
2017-Oct-07 08:30N 39°23' W 074°18'4 8.5
2017-Oct-07 08:00N 39°26' W 074°15'4 8.7
2017-Oct-07 07:30N 39°30' W 074°12'4 8.7
2017-Oct-07 07:00N 39°34' W 074°09'4 8.6
2017-Oct-07 06:30N 39°38' W 074°07'4 8.5
2017-Oct-07 06:00N 39°42' W 074°05'4 8.4
2017-Oct-07 05:30N 39°46' W 074°02'4 8.6
2017-Oct-07 04:59N 39°50' W 074°01'4 8.8
2017-Oct-07 04:29N 39°54' W 074°01'7 8.9
2017-Oct-07 03:41N 40°01' W 073°60'2 8.9
2017-Oct-07 03:25N 40°04' W 073°59'25 8.6
2017-Oct-07 00:30N 40°28' W 073°54'4 7.6
2017-Oct-06 23:58N 40°31' W 073°58'3 6.8
2017-Oct-06 23:30N 40°33' W 074°02'4 6.9
2017-Oct-06 23:00N 40°36' W 074°03'3 6.9
2017-Oct-06 22:30N 40°39' W 074°02'1 2.0
2017-Oct-06 21:58N 40°40' W 074°00'0 0.0
2017-Oct-06 21:28N 40°40' W 074°00'0 0.0
2017-Oct-06 20:58N 40°40' W 074°00'0 0.0
2017-Oct-06 20:28N 40°40' W 074°00'0 0.1
2017-Oct-06 20:00N 40°40' W 074°00'0 0.1
2017-Oct-06 19:30N 40°40' W 074°00'0 0.0
2017-Oct-06 19:00N 40°40' W 074°00'0 0.0
2017-Oct-06 18:30N 40°40' W 074°00'0 0.0
2017-Oct-06 18:00N 40°40' W 074°00'0 0.0
2017-Oct-06 17:30N 40°40' W 074°00'0 0.0
2017-Oct-06 17:00N 40°40' W 074°00'0 0.0
2017-Oct-06 16:30N 40°40' W 074°00'0 0.0
2017-Oct-06 16:00N 40°40' W 074°00'0 0.0
2017-Oct-06 15:30N 40°40' W 074°00'0 0.0
2017-Oct-06 14:15N 40°40' W 074°00'0 0.0
2017-Oct-06 14:00N 40°40' W 074°00'0 0.0
2017-Oct-06 13:24N 40°40' W 074°00'0 0.0
2017-Oct-06 13:00N 40°40' W 074°00'0 0.0
2017-Oct-06 12:15N 40°40' W 074°00'0 0.0
2017-Oct-06 12:00N 40°40' W 074°00'0 0.0
2017-Oct-06 11:27N 40°40' W 074°00'0 0.0
2017-Oct-06 10:57N 40°40' W 074°00'0 0.0
2017-Oct-06 10:30N 40°40' W 074°00'0 0.0
2017-Oct-06 09:57N 40°40' W 074°00'0 0.0
2017-Oct-06 09:18N 40°40' W 074°00'0 0.0
2017-Oct-06 08:57N 40°40' W 074°00'0 0.0
2017-Oct-06 08:30N 40°40' W 074°00'0 0.0
2017-Oct-06 08:00N 40°40' W 074°00'0 0.0
2017-Oct-06 07:27N 40°40' W 074°00'0 0.0
2017-Oct-06 07:00N 40°40' W 074°00'0 0.0
2017-Oct-06 06:30N 40°40' W 074°00'0 0.0
2017-Oct-06 05:57N 40°40' W 074°00'0 0.0
2017-Oct-06 05:30N 40°40' W 074°00'0 0.0
2017-Oct-06 05:00N 40°40' W 074°00'0 0.0
2017-Oct-06 04:30N 40°40' W 074°00'0 0.0
2017-Oct-06 04:00N 40°40' W 074°00'0 0.0
2017-Oct-06 03:30N 40°40' W 074°00'0 0.0
2017-Oct-06 03:00N 40°40' W 074°00'0 0.0
2017-Oct-06 01:45N 40°40' W 074°00'0 0.0
2017-Oct-06 01:27N 40°40' W 074°00'0 0.0
2017-Oct-06 00:57N 40°40' W 074°00'0 0.0
2017-Oct-06 00:27N 40°40' W 074°00'0 0.0
2017-Oct-05 23:51N 40°40' W 074°00'0 0.0
2017-Oct-05 23:27N 40°40' W 074°00'0 0.0
2017-Oct-05 22:57N 40°40' W 074°00'0 0.0
2017-Oct-05 22:27N 40°40' W 074°00'0 0.0
2017-Oct-05 21:51N 40°40' W 074°00'0 0.0
2017-Oct-05 21:24N 40°40' W 074°00'0 0.0
2017-Oct-05 21:00N 40°40' W 074°00'0 0.0
2017-Oct-05 20:24N 40°40' W 074°00'0 0.1
2017-Oct-05 20:00N 40°40' W 074°00'0 0.0
2017-Oct-05 19:30N 40°40' W 074°00'0 0.0
2017-Oct-05 19:00N 40°40' W 074°00'0 0.0
2017-Oct-05 18:27N 40°40' W 074°00'0 0.0
2017-Oct-05 18:00N 40°40' W 074°00'0 0.0
2017-Oct-05 17:30N 40°40' W 074°00'0 0.0
2017-Oct-05 17:00N 40°40' W 074°00'0 0.0
2017-Oct-05 15:30N 40°40' W 074°00'0 0.0
2017-Oct-05 14:57N 40°40' W 074°00'0 0.0
2017-Oct-05 14:18N 40°40' W 074°00'0 0.0
2017-Oct-05 14:00N 40°40' W 074°00'0 0.0
2017-Oct-05 13:30N 40°40' W 074°00'0 0.0
2017-Oct-05 12:57N 40°40' W 074°00'0 0.0
2017-Oct-05 12:30N 40°40' W 074°00'0 0.1
2017-Oct-05 11:57N 40°40' W 074°00'0 0.0
2017-Oct-05 11:27N 40°40' W 074°00'0 0.0
2017-Oct-05 10:39N 40°40' W 074°00'0 0.0
2017-Oct-05 10:27N 40°40' W 074°00'0 0.0
2017-Oct-05 09:57N 40°40' W 074°00'0 0.0
2017-Oct-05 09:27N 40°40' W 074°00'  
Track history (hours):
 
Tides and Currents Weather Stations Pressure Air Temp Water Temp Dewpoint Dewpoint Depression Visibility Wind Speed Wind Dir Waves Ship Positions

Duty

Owner: Express Marine Inc., Camden, NJ. More information available from US FCC via Universal Licensing System and Coast Guard Vessel Documentation Center.

Last reported at 2017-Oct-15 09:24 UTC. Time now 2017-Oct-19 23:40 UTC.
Position N 31°52' W 080°44'.

Length 33 m; draft 5.5 m.

Type: Tug. MMSI: 367082000.

Date/timePositionNaut miles runAvg speedWind from/ knotsBaromVisibWave heightAir tempDewpointWater temp
2017-Oct-15 09:24N 31°52' W 080°44'3 7.1
2017-Oct-15 08:57N 31°55' W 080°43'3 7.0
2017-Oct-15 08:28N 31°58' W 080°40'4 7.3
2017-Oct-15 07:59N 32°01' W 080°37'3 7.4
2017-Oct-15 07:30N 32°03' W 080°34'  
2017-Oct-11 00:01N 34°39' W 076°16'134 6.5
2017-Oct-10 03:11N 36°52' W 075°55'2 8.7
2017-Oct-10 02:58N 36°54' W 075°56'5 8.7
2017-Oct-10 02:24N 36°57' W 076°01'16 0.5
2017-Oct-08 13:54N 36°57' W 076°22'0 0.0
2017-Oct-08 13:27N 36°57' W 076°22'123 5.4
2017-Oct-07 14:37N 38°39' W 074°55'2 8.5
2017-Oct-07 14:25N 38°40' W 074°54'3 8.6
2017-Oct-07 14:00N 38°44' W 074°53'4 8.4
2017-Oct-07 13:30N 38°48' W 074°51'4 8.4
2017-Oct-07 13:00N 38°52' W 074°49'5 8.7
2017-Oct-07 12:25N 38°56' W 074°45'4 8.9
2017-Oct-07 12:00N 38°59' W 074°42'4 8.8
2017-Oct-07 11:30N 39°02' W 074°39'4 8.8
2017-Oct-07 11:00N 39°06' W 074°36'4 8.9
2017-Oct-07 10:30N 39°09' W 074°32'4 8.9
2017-Oct-07 10:00N 39°13' W 074°29'5 8.8
2017-Oct-07 09:30N 39°16' W 074°25'4 8.7
2017-Oct-07 09:00N 39°20' W 074°21'4 8.7
2017-Oct-07 08:30N 39°23' W 074°18'4 8.5
2017-Oct-07 08:00N 39°26' W 074°15'4 8.7
2017-Oct-07 07:30N 39°30' W 074°12'4 8.7
2017-Oct-07 07:00N 39°34' W 074°09'4 8.6
2017-Oct-07 06:30N 39°38' W 074°07'4 8.5
2017-Oct-07 06:00N 39°42' W 074°05'4 8.4
2017-Oct-07 05:30N 39°46' W 074°02'4 8.6
2017-Oct-07 04:59N 39°50' W 074°01'4 8.8
2017-Oct-07 04:29N 39°54' W 074°01'7 8.9
2017-Oct-07 03:41N 40°01' W 073°60'2 8.9
2017-Oct-07 03:25N 40°04' W 073°59'25 8.6
2017-Oct-07 00:30N 40°28' W 073°54'4 7.6
2017-Oct-06 23:58N 40°31' W 073°58'3 6.8
2017-Oct-06 23:30N 40°33' W 074°02'4 6.9
2017-Oct-06 23:00N 40°36' W 074°03'3 6.9
2017-Oct-06 22:30N 40°39' W 074°02'1 2.0
2017-Oct-06 21:58N 40°40' W 074°00'0 0.0
2017-Oct-06 21:28N 40°40' W 074°00'0 0.0
2017-Oct-06 20:58N 40°40' W 074°00'0 0.0
2017-Oct-06 20:28N 40°40' W 074°00'0 0.1
2017-Oct-06 20:00N 40°40' W 074°00'0 0.1
2017-Oct-06 19:30N 40°40' W 074°00'0 0.0
2017-Oct-06 19:00N 40°40' W 074°00'0 0.0
2017-Oct-06 18:30N 40°40' W 074°00'0 0.0
2017-Oct-06 18:00N 40°40' W 074°00'0 0.0
2017-Oct-06 17:30N 40°40' W 074°00'0 0.0
2017-Oct-06 17:00N 40°40' W 074°00'0 0.0
2017-Oct-06 16:30N 40°40' W 074°00'0 0.0
2017-Oct-06 16:00N 40°40' W 074°00'0 0.0
2017-Oct-06 15:30N 40°40' W 074°00'0 0.0
2017-Oct-06 14:15N 40°40' W 074°00'0 0.0
2017-Oct-06 14:00N 40°40' W 074°00'0 0.0
2017-Oct-06 13:24N 40°40' W 074°00'0 0.0
2017-Oct-06 13:00N 40°40' W 074°00'0 0.0
2017-Oct-06 12:15N 40°40' W 074°00'0 0.0
2017-Oct-06 12:00N 40°40' W 074°00'0 0.0
2017-Oct-06 11:27N 40°40' W 074°00'0 0.0
2017-Oct-06 10:57N 40°40' W 074°00'0 0.0
2017-Oct-06 10:30N 40°40' W 074°00'0 0.0
2017-Oct-06 09:57N 40°40' W 074°00'0 0.0
2017-Oct-06 09:18N 40°40' W 074°00'0 0.0
2017-Oct-06 08:57N 40°40' W 074°00'0 0.0
2017-Oct-06 08:30N 40°40' W 074°00'0 0.0
2017-Oct-06 08:00N 40°40' W 074°00'0 0.0
2017-Oct-06 07:27N 40°40' W 074°00'0 0.0
2017-Oct-06 07:00N 40°40' W 074°00'0 0.0
2017-Oct-06 06:30N 40°40' W 074°00'0 0.0
2017-Oct-06 05:57N 40°40' W 074°00'0 0.0
2017-Oct-06 05:30N 40°40' W 074°00'0 0.0
2017-Oct-06 05:00N 40°40' W 074°00'0 0.0
2017-Oct-06 04:30N 40°40' W 074°00'0 0.0
2017-Oct-06 04:00N 40°40' W 074°00'0 0.0
2017-Oct-06 03:30N 40°40' W 074°00'0 0.0
2017-Oct-06 03:00N 40°40' W 074°00'0 0.0
2017-Oct-06 01:45N 40°40' W 074°00'0 0.0
2017-Oct-06 01:27N 40°40' W 074°00'0 0.0
2017-Oct-06 00:57N 40°40' W 074°00'0 0.0
2017-Oct-06 00:27N 40°40' W 074°00'0 0.0
2017-Oct-05 23:51N 40°40' W 074°00'0 0.0
2017-Oct-05 23:27N 40°40' W 074°00'0 0.0
2017-Oct-05 22:57N 40°40' W 074°00'0 0.0
2017-Oct-05 22:27N 40°40' W 074°00'0 0.0
2017-Oct-05 21:51N 40°40' W 074°00'0 0.0
2017-Oct-05 21:24N 40°40' W 074°00'0 0.0
2017-Oct-05 21:00N 40°40' W 074°00'0 0.0
2017-Oct-05 20:24N 40°40' W 074°00'0 0.1
2017-Oct-05 20:00N 40°40' W 074°00'0 0.0
2017-Oct-05 19:30N 40°40' W 074°00'0 0.0
2017-Oct-05 19:00N 40°40' W 074°00'0 0.0
2017-Oct-05 18:27N 40°40' W 074°00'0 0.0
2017-Oct-05 18:00N 40°40' W 074°00'0 0.0
2017-Oct-05 17:30N 40°40' W 074°00'0 0.0
2017-Oct-05 17:00N 40°40' W 074°00'0 0.0
2017-Oct-05 15:30N 40°40' W 074°00'0 0.0
2017-Oct-05 14:57N 40°40' W 074°00'0 0.0
2017-Oct-05 14:18N 40°40' W 074°00'0 0.0
2017-Oct-05 14:00N 40°40' W 074°00'0 0.0
2017-Oct-05 13:30N 40°40' W 074°00'0 0.0
2017-Oct-05 12:57N 40°40' W 074°00'0 0.0
2017-Oct-05 12:30N 40°40' W 074°00'0 0.1
2017-Oct-05 11:57N 40°40' W 074°00'0 0.0
2017-Oct-05 11:27N 40°40' W 074°00'0 0.0
2017-Oct-05 10:39N 40°40' W 074°00'0 0.0
2017-Oct-05 10:27N 40°40' W 074°00'0 0.0
2017-Oct-05 09:57N 40°40' W 074°00'0 0.0
2017-Oct-05 09:27N 40°40' W 074°00'  

Dump ship's entire track history